ADDS METAR Data INFO
IDs: Format: Raw Decoded Include TAF

Data at: 1247 UTC 20 Jan 2018

METAR for:KEDJ (Bellefontaine Rgnl, OH, US)
Text:KEDJ 201235Z AUTO 22013KT 10SM CLR M01/M05 A2999 RMK AO1
Temperature: -1.0°C ( 30°F)
Dewpoint: -5.0°C ( 23°F) [RH = 74%]
Pressure (altimeter):29.99 inches Hg (1015.7 mb)
Winds:from the SW (220 degrees) at 15 MPH (13 knots; 6.7 m/s)
Visibility:10 or more sm (16+ km)
Ceiling:at least 12,000 feet AGL
Clouds:sky clear below 12,000 feet AGL
QC Flag:automated observation with no human augmentation